Time;durP1;ratioP1;P1;durP2;ratioP2;P2;SDS_P1;SDS_P2;PMS_P1;PMS_P2;Temp;Humidity;BMP_temperature;BMP_pressure;BME280_temperature;BME280_humidity;BME280_pressure;Samples;Min_cycle;Max_cycle;Signal;HPM_P1;HPM_P2
2022/06/01 00:01:28;;;;;;;4.83;4.13;;;;;;;15.57;73.09;100829.50;1606493;88;21446;-71
2022/06/01 00:03:55;;;;;;;4.07;3.33;;;;;;;15.57;73.09;100829.50;1628848;85;22398;-71
2022/06/01 00:06:22;;;;;;;4.73;3.70;;;;;;;15.58;73.15;100830.30;1633646;85;21554;-71
2022/06/01 00:08:49;;;;;;;4.87;3.07;;;;;;;15.58;72.92;100828.41;1606820;88;21952;-71
2022/06/01 00:11:16;;;;;;;4.73;3.50;;;;;;;15.47;73.01;100828.25;1634148;86;21469;-71
2022/06/01 00:13:43;;;;;;;4.37;3.50;;;;;;;15.42;72.81;100824.25;1626986;87;21450;-71
2022/06/01 00:16:11;;;;;;;4.20;3.30;;;;;;;15.39;72.84;100820.77;1608285;87;21455;-71
2022/06/01 00:18:40;;;;;;;4.50;3.47;;;;;;;15.42;72.40;100818.87;1605431;87;21546;-72
2022/06/01 00:21:08;;;;;;;5.13;3.03;;;;;;;15.42;72.40;100818.87;1627702;86;21960;-71
2022/06/01 00:23:36;;;;;;;4.50;3.10;;;;;;;15.39;72.12;100816.73;1607873;88;21479;-71
2022/06/01 00:26:03;;;;;;;4.57;3.23;;;;;;;15.28;72.06;100813.88;1629675;86;21322;-71
2022/06/01 00:28:32;;;;;;;3.27;2.60;;;;;;;15.23;71.88;100814.70;1622937;86;21813;-71
2022/06/01 00:30:59;;;;;;;4.73;3.30;;;;;;;15.22;71.64;100818.50;1593372;88;21478;-70
2022/06/01 00:33:26;;;;;;;4.33;2.70;;;;;;;15.20;71.24;100817.95;1628630;85;21502;-70
2022/06/01 00:35:53;;;;;;;3.63;2.67;;;;;;;15.20;70.57;100824.17;1631318;85;21871;-70
2022/06/01 00:38:21;;;;;;;3.93;2.53;;;;;;;15.19;69.93;100828.47;1625269;86;22047;-70
2022/06/01 00:40:48;;;;;;;8.83;2.60;;;;;;;15.28;69.36;100829.48;1627385;86;21534;-70
2022/06/01 00:43:44;;;;;;;3.93;2.80;;;;;;;15.28;69.36;100829.48;1630737;86;21540;-70
2022/06/01 00:46:12;;;;;;;3.20;2.63;;;;;;;15.25;68.75;100834.08;1623966;86;21489;-71
2022/06/01 00:48:43;;;;;;;3.33;2.70;;;;;;;15.21;68.37;100832.49;1625910;86;21840;-71
2022/06/01 00:51:11;;;;;;;4.53;2.72;;;;;;;15.21;68.37;100832.49;1630038;87;21566;-70
2022/06/01 00:53:38;;;;;;;4.30;2.87;;;;;;;15.20;68.31;100828.20;1628603;85;21072;-70
2022/06/01 00:56:20;;;;;;;2.93;2.40;;;;;;;15.23;68.11;100828.16;1625685;85;21918;-70
2022/06/01 00:58:50;;;;;;;5.37;2.62;;;;;;;15.25;67.81;100829.50;1626126;86;21320;-70
2022/06/01 01:01:19;;;;;;;3.87;2.27;;;;;;;15.22;67.71;100828.71;1626230;86;21528;-70
2022/06/01 01:03:49;;;;;;;3.90;2.73;;;;;;;15.24;67.38;100829.24;1625312;86;21412;-71
2022/06/01 01:06:33;;;;;;;4.07;2.73;;;;;;;15.32;67.33;100829.72;1629966;86;21350;-70
2022/06/01 01:09:00;;;;;;;4.07;2.90;;;;;;;15.34;67.29;100831.59;1625211;86;21764;-69
2022/06/01 01:11:51;;;;;;;4.07;2.73;;;;;;;15.36;67.11;100826.17;1632909;85;21438;-70
2022/06/01 01:14:24;;;;;;;3.80;2.98;;;;;;;15.37;67.00;100827.80;1626220;86;21874;-71
2022/06/01 01:16:50;;;;;;;3.53;2.87;;;;;;;15.39;66.88;100826.95;1629358;86;21049;-71
2022/06/01 01:19:38;;;;;;;3.70;2.67;;;;;;;15.42;66.33;100837.70;1634657;86;21418;-71
2022/06/01 01:22:13;;;;;;;4.37;2.80;;;;;;;15.44;66.11;100827.47;1631723;86;22659;-70
2022/06/01 01:25:10;;;;;;;3.47;2.70;;;;;;;15.47;65.99;100829.60;1627031;86;21355;-70
2022/06/01 01:27:37;;;;;;;3.60;2.63;;;;;;;15.47;65.78;100834.44;1624657;86;21375;-70
2022/06/01 01:30:40;;;;;;;4.10;2.80;;;;;;;15.49;65.60;100825.52;1631227;86;21482;-70
2022/06/01 01:33:14;;;;;;;4.73;3.07;;;;;;;15.53;65.29;100829.82;1600240;88;21493;-70
2022/06/01 01:35:46;;;;;;;3.27;2.50;;;;;;;15.60;65.22;100834.33;1623261;86;21926;-71
2022/06/01 01:38:24;;;;;;;3.67;2.90;;;;;;;15.64;65.00;100834.02;1611233;88;21717;-71
2022/06/01 01:41:06;;;;;;;3.43;2.77;;;;;;;15.64;65.00;100834.02;1629379;86;21550;-69
2022/06/01 01:43:38;;;;;;;3.27;2.70;;;;;;;15.68;64.50;100824.84;1635853;86;21497;-69
2022/06/01 01:46:05;;;;;;;;;;;;;;;15.71;64.29;100825.62;1633021;86;21656;-70
2022/06/01 01:48:37;;;;;;;4.17;3.03;;;;;;;15.74;64.13;100826.95;1626411;86;20137;-71
2022/06/01 01:51:05;;;;;;;5.30;3.20;;;;;;;15.79;64.09;100834.97;1628127;86;21542;-71
2022/06/01 01:53:33;;;;;;;5.07;2.80;;;;;;;15.82;64.13;100837.89;1631861;85;21183;-71
2022/06/01 01:56:38;;;;;;;3.83;3.07;;;;;;;15.86;64.91;100834.91;1626707;86;21662;-71
2022/06/01 01:59:19;;;;;;;4.57;3.40;;;;;;;15.86;64.91;100834.91;1585348;86;22120;-70
2022/06/01 02:02:00;;;;;;;4.42;3.20;;;;;;;15.87;65.21;100831.67;1632135;86;21721;-70
2022/06/01 02:08:30;;;;;;;4.87;3.50;;;;;;;15.91;65.69;100834.05;1626312;86;21852;-70
2022/06/01 02:14:00;;;;;;;3.70;2.93;;;;;;;15.88;65.93;100823.29;1627989;86;22286;-71
2022/06/01 02:16:30;;;;;;;4.00;3.17;;;;;;;15.88;66.31;100823.29;1628913;86;21811;-70
2022/06/01 02:19:01;;;;;;;5.30;3.40;;;;;;;15.88;66.46;100821.14;1629441;86;21076;-70
2022/06/01 02:21:28;;;;;;;4.47;3.47;;;;;;;15.84;66.59;100813.38;1627149;86;22119;-70
2022/06/01 02:23:58;;;;;;;4.63;3.07;;;;;;;15.84;66.59;100813.38;1628186;86;21615;-71
2022/06/01 02:26:26;;;;;;;4.90;3.33;;;;;;;15.83;66.37;100815.83;1629245;86;22124;-71
2022/06/01 02:28:58;;;;;;;4.73;3.27;;;;;;;15.83;66.37;100815.83;1628875;86;22299;-70
2022/06/01 02:31:24;;;;;;;4.40;3.17;;;;;;;15.86;66.10;100812.02;1626392;86;21669;-70
2022/06/01 02:33:52;;;;;;;3.90;2.90;;;;;;;15.91;66.10;100817.88;1626951;86;21181;-70
2022/06/01 02:36:20;;;;;;;3.83;2.80;;;;;;;15.95;65.87;100809.48;1626166;86;21740;-70
2022/06/01 02:38:51;;;;;;;5.23;3.60;;;;;;;15.96;65.32;100811.11;1627024;86;21803;-70
2022/06/01 02:44:03;;;;;;;4.33;3.10;;;;;;;16.06;65.47;100825.80;1646254;85;22309;-70
2022/06/01 02:46:30;;;;;;;5.10;3.10;;;;;;;16.06;65.47;100825.80;1639050;86;21799;-70
2022/06/01 02:48:57;;;;;;;3.60;2.83;;;;;;;16.10;65.00;100828.17;1632829;86;21852;-71
2022/06/01 02:51:24;;;;;;;3.97;2.97;;;;;;;16.17;64.70;100831.33;1604610;87;22365;-69
2022/06/01 02:53:51;;;;;;;4.00;2.80;;;;;;;16.21;64.48;100822.66;1632077;86;21812;-69
2022/06/01 02:56:18;;;;;;;4.07;3.03;;;;;;;16.27;64.33;100830.40;1628859;85;21785;-71
2022/06/01 02:58:45;;;;;;;5.63;3.30;;;;;;;16.33;64.14;100825.20;1608480;88;21796;-71
2022/06/01 03:01:11;;;;;;;5.33;3.10;;;;;;;16.38;63.75;100829.17;1629434;86;21803;-70
2022/06/01 03:03:39;;;;;;;4.43;3.23;;;;;;;16.41;63.28;100829.14;1624507;86;21788;-71
2022/06/01 03:06:07;;;;;;;3.73;3.03;;;;;;;16.28;63.25;100824.45;1611872;87;22446;-70
2022/06/01 03:08:33;;;;;;;6.47;3.20;;;;;;;16.15;63.48;100825.41;1629399;86;22211;-71
2022/06/01 03:11:02;;;;;;;3.13;2.50;;;;;;;16.16;63.56;100831.08;1610552;87;21878;-70
2022/06/01 03:13:30;;;;;;;4.57;2.90;;;;;;;16.26;62.84;100829.36;1617159;87;21810;-70
2022/06/01 03:15:56;;;;;;;3.40;2.60;;;;;;;16.26;62.84;100829.36;1630456;86;22277;-71
2022/06/01 03:18:24;;;;;;;5.03;2.80;;;;;;;16.25;62.09;100829.08;1613675;88;21783;-70
2022/06/01 03:20:51;;;;;;;3.70;2.90;;;;;;;16.26;62.28;100834.19;1615176;87;21717;-70
2022/06/01 03:23:19;;;;;;;3.57;2.60;;;;;;;16.52;61.49;100836.03;1631023;86;21826;-70
2022/06/01 03:25:46;;;;;;;4.23;3.07;;;;;;;16.66;61.21;100829.37;1628097;86;21859;-70
2022/06/01 03:28:13;;;;;;;5.10;2.87;;;;;;;16.70;60.73;100829.59;1631124;86;21751;-71
2022/06/01 03:30:43;;;;;;;3.30;2.60;;;;;;;16.64;60.96;100835.03;1611619;88;21889;-71
2022/06/01 03:33:13;;;;;;;3.87;3.10;;;;;;;16.72;60.94;100827.41;1595956;88;22260;-71
2022/06/01 03:35:40;;;;;;;4.13;2.73;;;;;;;16.81;61.09;100824.32;1628918;86;21843;-71
2022/06/01 03:38:07;;;;;;;3.53;2.67;;;;;;;16.88;61.08;100824.78;1630947;86;21735;-71
2022/06/01 03:40:40;;;;;;;3.47;2.70;;;;;;;16.94;60.67;100821.44;1628603;86;22152;-71
2022/06/01 03:43:07;;;;;;;4.22;3.00;;;;;;;17.18;60.44;100816.75;1631032;86;23592;-71
2022/06/01 03:48:31;;;;;;;4.47;3.20;;;;;;;17.18;60.46;100811.91;1630753;86;21217;-70
2022/06/01 03:50:59;;;;;;;6.03;3.20;;;;;;;17.31;60.18;100809.80;1576045;89;21462;-69
2022/06/01 03:53:29;;;;;;;3.97;2.63;;;;;;;17.40;59.89;100794.50;1621467;86;21105;-70
2022/06/01 03:55:55;;;;;;;5.37;2.90;;;;;;;17.45;59.80;100802.53;1631507;86;21125;-70
2022/06/01 03:58:23;;;;;;;3.53;2.90;;;;;;;17.49;59.51;100800.83;1611696;88;21043;-70
2022/06/01 04:00:50;;;;;;;4.67;3.20;;;;;;;17.53;59.43;100793.73;1628349;86;21231;-70
2022/06/01 04:03:17;;;;;;;4.60;3.17;;;;;;;17.57;59.58;100798.81;1628170;86;21595;-70
2022/06/01 04:05:44;;;;;;;4.70;3.10;;;;;;;17.62;59.61;100801.95;1631094;86;20994;-70
2022/06/01 04:08:11;;;;;;;3.67;2.63;;;;;;;17.67;59.47;100797.82;1612269;88;20996;-70
2022/06/01 04:10:43;;;;;;;3.70;3.00;;;;;;;17.83;59.08;100798.90;1631099;86;21089;-71
2022/06/01 04:13:13;;;;;;;4.13;3.00;;;;;;;17.74;59.18;100797.42;1628459;86;21921;-71
2022/06/01 04:15:41;;;;;;;4.15;3.02;;;;;;;17.81;59.50;100793.25;1631533;86;20994;-72
2022/06/01 04:18:10;;;;;;;4.83;3.17;;;;;;;17.70;59.78;100797.75;1610781;88;21044;-71
2022/06/01 04:20:36;;;;;;;4.30;3.40;;;;;;;17.83;59.56;100795.64;1631359;88;21077;-72
2022/06/01 04:23:04;;;;;;;4.63;3.17;;;;;;;17.63;60.10;100801.40;1628574;86;21160;-71
2022/06/01 04:25:32;;;;;;;3.97;3.20;;;;;;;17.59;60.42;100800.64;1631053;86;21160;-71
2022/06/01 04:28:00;;;;;;;4.93;3.40;;;;;;;17.57;60.60;100796.11;1609480;87;21068;-71
2022/06/01 04:30:27;;;;;;;4.83;3.27;;;;;;;17.59;60.81;100795.24;1628302;86;21047;-71
2022/06/01 04:32:54;;;;;;;3.97;3.27;;;;;;;17.63;60.99;100797.34;1601412;88;21067;-74
2022/06/01 04:35:22;;;;;;;4.53;3.33;;;;;;;17.64;61.15;100785.47;1630772;86;21185;-70
2022/06/01 04:37:49;;;;;;;3.60;3.00;;;;;;;17.70;61.33;100793.70;1627958;86;21624;-70
2022/06/01 04:40:17;;;;;;;5.23;3.30;;;;;;;17.76;61.45;100791.98;1628433;86;21120;-71
2022/06/01 04:42:44;;;;;;;4.40;3.27;;;;;;;17.84;61.37;100784.31;1628575;88;21155;-71
2022/06/01 04:45:14;;;;;;;4.37;3.40;;;;;;;17.91;61.59;100790.91;1628624;88;20994;-71
2022/06/01 04:47:41;;;;;;;5.63;3.50;;;;;;;18.00;61.55;100781.00;1628604;86;21037;-71
2022/06/01 04:50:09;;;;;;;4.73;3.40;;;;;;;18.12;61.32;100792.64;1631121;86;21103;-71
2022/06/01 04:52:37;;;;;;;4.53;3.50;;;;;;;18.13;61.04;100790.20;1612168;89;21084;-71
2022/06/01 04:55:07;;;;;;;4.93;3.13;;;;;;;18.18;61.02;100789.28;1631510;88;20997;-71
2022/06/01 04:57:36;;;;;;;4.27;3.10;;;;;;;18.28;60.44;100789.08;1627546;87;21080;-70
2022/06/01 05:00:04;;;;;;;5.93;3.10;;;;;;;18.44;59.98;100783.58;1627753;86;21611;-72
2022/06/01 05:02:31;;;;;;;5.03;3.00;;;;;;;18.62;59.08;100783.73;1627882;86;21139;-71
2022/06/01 05:04:58;;;;;;;4.47;3.03;;;;;;;18.77;58.37;100783.42;1628395;86;21018;-71
2022/06/01 05:07:25;;;;;;;3.77;2.90;;;;;;;18.95;57.97;100781.63;1627191;86;20997;-70
2022/06/01 05:09:53;;;;;;;4.33;3.20;;;;;;;19.16;57.46;100784.66;1627911;86;21085;-71
2022/06/01 05:12:21;;;;;;;6.53;3.10;;;;;;;19.47;56.90;100784.66;1628252;86;21006;-71
2022/06/01 05:14:49;;;;;;;4.47;3.10;;;;;;;19.41;56.85;100775.89;1639359;85;21284;-72
2022/06/01 05:17:19;;;;;;;5.40;3.17;;;;;;;19.45;55.80;100778.22;1627993;86;21053;-70
2022/06/01 05:19:46;;;;;;;5.13;2.90;;;;;;;19.75;55.44;100782.61;1628045;86;21611;-71
2022/06/01 05:22:13;;;;;;;4.93;3.13;;;;;;;19.70;55.66;100786.00;1628284;86;21033;-70
2022/06/01 05:24:40;;;;;;;4.83;3.10;;;;;;;19.67;55.85;100787.42;1628173;86;20982;-71
2022/06/01 05:27:07;;;;;;;4.53;2.97;;;;;;;19.83;55.35;100781.83;1627379;86;21242;-71
2022/06/01 05:29:35;;;;;;;5.37;3.33;;;;;;;19.73;55.66;100778.05;1625296;87;21545;-72
2022/06/01 05:32:02;;;;;;;5.17;3.40;;;;;;;19.72;56.02;100779.16;1628303;86;21046;-71
2022/06/01 05:34:29;;;;;;;4.57;3.30;;;;;;;19.76;56.24;100772.56;1628245;86;21062;-70
2022/06/01 05:36:57;;;;;;;4.13;3.13;;;;;;;19.80;56.48;100775.67;1628005;86;21933;-70
2022/06/01 05:39:24;;;;;;;4.50;3.23;;;;;;;19.85;56.26;100774.75;1628071;88;21553;-70
2022/06/01 05:41:52;;;;;;;5.70;3.30;;;;;;;19.82;56.06;100775.38;1628133;87;21100;-72
2022/06/01 05:44:19;;;;;;;4.93;3.57;;;;;;;19.75;56.49;100775.83;1627737;86;21588;-72
2022/06/01 05:46:46;;;;;;;4.93;3.20;;;;;;;19.77;56.50;100766.02;1627959;86;21109;-71
2022/06/01 05:49:13;;;;;;;4.77;3.40;;;;;;;19.81;56.71;100769.69;1628043;86;21105;-71
2022/06/01 05:51:41;;;;;;;4.40;3.40;;;;;;;19.98;56.06;100774.40;1626438;86;21476;-70
2022/06/01 05:54:08;;;;;;;8.03;3.60;;;;;;;20.01;55.77;100776.48;1612513;87;21087;-71
2022/06/01 05:56:34;;;;;;;6.93;4.00;;;;;;;19.95;56.27;100774.46;1604236;88;21102;-71
2022/06/01 05:59:01;;;;;;;5.77;3.10;;;;;;;19.85;56.30;100775.55;1626040;86;21127;-71
2022/06/01 06:01:29;;;;;;;7.07;3.90;;;;;;;19.93;56.65;100775.88;1626999;86;20897;-72
2022/06/01 06:03:56;;;;;;;4.87;3.90;;;;;;;19.99;56.86;100777.34;1627703;86;21388;-71
2022/06/01 06:06:23;;;;;;;8.50;4.23;;;;;;;20.06;56.44;100778.47;1626980;86;21183;-71
2022/06/01 06:09:02;;;;;;;4.77;3.57;;;;;;;20.17;56.53;100781.70;1625229;86;21599;-71
2022/06/01 06:11:32;;;;;;;4.60;3.40;;;;;;;20.34;56.09;100779.58;1614693;86;21057;-70
2022/06/01 06:13:59;;;;;;;4.40;4.00;;;;;;;20.43;55.82;100775.50;1628003;86;21038;-71
2022/06/01 06:16:29;;;;;;;5.60;3.70;;;;;;;20.42;55.71;100767.92;1626933;85;21113;-71
2022/06/01 06:18:57;;;;;;;5.83;3.80;;;;;;;20.48;55.85;100772.08;1627535;86;21009;-72
2022/06/01 06:21:26;;;;;;;5.43;3.80;;;;;;;20.59;55.62;100769.88;1618015;87;21690;-72
2022/06/01 06:23:54;;;;;;;4.77;3.83;;;;;;;20.65;55.38;100765.89;1617039;87;21578;-70
2022/06/01 06:26:21;;;;;;;5.10;3.70;;;;;;;20.69;55.52;100763.33;1596121;88;21636;-72
2022/06/01 06:28:48;;;;;;;4.60;3.87;;;;;;;20.83;55.75;100765.34;1614751;86;21176;-72
2022/06/01 06:31:15;;;;;;;4.00;3.60;;;;;;;20.89;55.24;100762.67;1628050;86;21675;-72
2022/06/01 06:33:43;;;;;;;5.10;3.80;;;;;;;20.92;54.71;100762.03;1627335;86;21563;-72
2022/06/01 06:36:11;;;;;;;5.93;4.00;;;;;;;20.91;54.98;100762.37;1627209;86;21017;-72
2022/06/01 06:38:39;;;;;;;4.30;3.53;;;;;;;20.87;55.17;100755.98;1628027;86;21112;-72
2022/06/01 06:41:05;;;;;;;5.67;4.33;;;;;;;20.92;55.51;100763.39;1628210;87;21256;-72
2022/06/01 06:43:35;;;;;;;5.13;3.90;;;;;;;20.99;55.68;100758.83;1626865;87;21163;-70
2022/06/01 06:46:06;;;;;;;7.27;4.23;;;;;;;21.13;55.55;100764.89;1608074;88;21189;-72
2022/06/01 06:48:33;;;;;;;5.78;4.78;;;;;;;21.26;55.57;100761.19;1607025;87;21616;-72
2022/06/01 06:51:01;;;;;;;4.87;3.80;;;;;;;21.40;55.03;100755.57;1629938;86;21061;-71
2022/06/01 06:53:29;;;;;;;6.87;4.40;;;;;;;21.47;54.90;100756.43;1627832;86;21289;-71
2022/06/01 06:55:56;;;;;;;5.07;4.30;;;;;;;21.57;55.17;100760.14;1627845;86;21070;-71
2022/06/01 06:58:24;;;;;;;5.20;4.70;;;;;;;21.70;54.92;100762.41;1628053;85;21128;-72
2022/06/01 07:00:51;;;;;;;5.73;4.70;;;;;;;21.87;54.81;100764.25;1627852;86;21093;-71
2022/06/01 07:03:18;;;;;;;6.17;4.83;;;;;;;22.06;54.95;100757.03;1627965;86;21667;-72
2022/06/01 07:08:31;;;;;;;5.23;4.60;;;;;;;22.39;54.01;100755.80;1620004;87;21097;-72
2022/06/01 07:11:00;;;;;;;5.90;4.90;;;;;;;22.57;53.89;100754.51;1630731;86;21076;-73
2022/06/01 07:13:27;;;;;;;5.57;4.63;;;;;;;22.68;53.57;100751.63;1608987;87;21218;-73
2022/06/01 07:16:05;;;;;;;7.13;4.40;;;;;;;22.83;53.44;100750.77;1642831;85;21128;-72
2022/06/01 07:18:34;;;;;;;5.70;4.67;;;;;;;22.91;53.43;100752.63;1628083;86;21174;-72
2022/06/01 07:21:01;;;;;;;6.70;4.93;;;;;;;23.00;53.32;100745.20;1599446;88;21142;-71
2022/06/01 07:23:28;;;;;;;7.40;4.67;;;;;;;23.10;53.18;100742.05;1604190;88;22263;-71
2022/06/01 07:25:56;;;;;;;6.27;5.30;;;;;;;23.20;53.42;100742.19;1630000;86;21131;-72
2022/06/01 07:28:23;;;;;;;5.20;4.70;;;;;;;23.49;52.63;100741.75;1627366;86;21037;-72
2022/06/01 07:30:51;;;;;;;7.13;5.27;;;;;;;23.67;52.58;100739.62;1629837;86;21760;-74
2022/06/01 07:33:18;;;;;;;7.10;6.37;;;;;;;23.80;53.00;100741.23;1601611;87;21081;-71
2022/06/01 07:35:47;;;;;;;5.53;5.03;;;;;;;23.94;53.08;100733.48;1621939;85;21156;-72
2022/06/01 07:43:44;;;;;;;7.27;5.90;;;;;;;24.16;52.61;100725.95;1606026;87;21141;-73
2022/06/01 07:46:12;;;;;;;7.30;6.10;;;;;;;24.31;52.59;100723.85;1604349;86;21967;-73
2022/06/01 07:48:39;;;;;;;7.00;6.30;;;;;;;24.38;52.03;100728.14;1615376;87;21125;-73
2022/06/01 07:51:06;;;;;;;7.17;5.57;;;;;;;24.45;51.87;100726.22;1605748;87;21606;-71
2022/06/01 07:53:33;;;;;;;6.67;5.67;;;;;;;24.47;52.03;100721.22;1630254;86;21001;-73
2022/06/01 07:56:00;;;;;;;5.97;4.77;;;;;;;24.52;51.89;100725.08;1615913;88;21243;-74
2022/06/01 07:58:27;;;;;;;7.50;6.03;;;;;;;24.59;52.37;100717.08;1628921;88;21543;-72
2022/06/01 08:00:54;;;;;;;6.87;5.50;;;;;;;24.71;52.12;100721.68;1627809;86;21026;-71
2022/06/01 08:03:21;;;;;;;6.40;5.37;;;;;;;24.75;51.55;100719.28;1631467;86;21131;-73
2022/06/01 08:05:48;;;;;;;5.97;4.30;;;;;;;24.77;51.66;100723.02;1612492;88;21510;-71
2022/06/01 08:08:17;;;;;;;6.87;5.17;;;;;;;24.82;51.68;100719.27;1629238;86;21229;-73
2022/06/01 08:10:47;;;;;;;6.70;5.50;;;;;;;24.85;51.09;100724.03;1627403;85;21125;-75
2022/06/01 08:13:14;;;;;;;8.50;6.20;;;;;;;24.88;51.46;100720.60;1606810;86;21566;-72
2022/06/01 08:15:45;;;;;;;7.37;5.70;;;;;;;24.93;51.06;100720.33;1615908;86;21169;-70
2022/06/01 08:18:16;;;;;;;6.37;5.23;;;;;;;25.02;51.27;100720.97;1617777;87;21127;-73
2022/06/01 08:20:44;;;;;;;5.90;5.00;;;;;;;25.15;51.04;100717.62;1629015;86;21187;-72
2022/06/01 08:23:11;;;;;;;8.33;5.27;;;;;;;25.25;50.66;100718.45;1625242;87;21133;-71
2022/06/01 08:25:40;;;;;;;7.17;4.90;;;;;;;25.26;49.81;100709.09;1629057;86;21443;-72
2022/06/01 08:28:08;;;;;;;7.53;5.27;;;;;;;25.27;50.24;100707.94;1610696;88;21083;-72
2022/06/01 08:30:36;;;;;;;6.23;5.00;;;;;;;25.33;50.10;100705.17;1629560;86;21102;-72
2022/06/01 08:33:05;;;;;;;8.03;5.53;;;;;;;25.47;50.65;100702.80;1601456;88;21133;-71
2022/06/01 08:35:36;;;;;;;6.67;5.63;;;;;;;25.64;50.16;100698.89;1605109;86;21112;-72
2022/06/01 08:38:03;;;;;;;5.30;4.33;;;;;;;25.79;49.83;100702.73;1613204;87;21512;-72
2022/06/01 08:40:34;;;;;;;5.50;4.30;;;;;;;25.95;49.47;100698.63;1626593;86;21080;-71
2022/06/01 08:43:09;;;;;;;7.70;4.72;;;;;;;26.04;48.12;100697.84;1627681;86;21135;-71
2022/06/01 08:45:36;;;;;;;5.73;4.27;;;;;;;25.96;48.74;100701.02;1600590;88;21359;-71
2022/06/01 08:48:05;;;;;;;7.13;4.60;;;;;;;26.08;47.79;100700.66;1626979;86;21127;-72
2022/06/01 08:50:38;;;;;;;5.47;4.53;;;;;;;26.16;47.35;100701.83;1628225;88;21009;-72
2022/06/01 08:53:07;;;;;;;6.27;4.37;;;;;;;26.28;47.23;100699.52;1630913;88;21489;-71
2022/06/01 08:55:48;;;;;;;6.27;4.53;;;;;;;26.36;47.26;100704.00;1612207;88;21599;-73
2022/06/01 08:58:19;;;;;;;5.87;4.25;;;;;;;26.41;46.94;100695.48;1630101;86;21933;-73
2022/06/01 09:00:57;;;;;;;5.53;4.00;;;;;;;26.34;46.66;100692.60;1612038;88;21017;-70
2022/06/01 09:03:41;;;;;;;5.10;4.43;;;;;;;26.27;46.97;100693.83;1629669;86;21110;-72
2022/06/01 09:06:19;;;;;;;6.53;4.90;;;;;;;26.34;47.31;100693.97;1612393;88;21576;-71
2022/06/01 09:08:55;;;;;;;5.80;4.47;;;;;;;26.51;46.55;100694.72;1628012;88;21062;-72
2022/06/01 09:11:32;;;;;;;5.23;4.40;;;;;;;26.66;47.27;100689.73;1628034;88;21027;-72
2022/06/01 09:14:30;;;;;;;6.57;4.00;;;;;;;26.96;46.85;100695.95;1627898;86;21223;-71
2022/06/01 09:16:59;;;;;;;7.07;4.63;;;;;;;27.11;45.31;100697.20;1627831;87;21083;-71
2022/06/01 09:22:42;;;;;;;6.63;4.30;;;;;;;27.12;45.28;100693.88;1630170;86;21033;-71
2022/06/01 09:25:19;;;;;;;5.83;4.13;;;;;;;27.27;45.01;100687.48;1628204;88;22082;-71
2022/06/01 09:27:52;;;;;;;7.33;4.33;;;;;;;27.39;45.17;100692.58;1639257;86;21055;-70
2022/06/01 09:30:42;;;;;;;4.83;3.60;;;;;;;27.49;44.66;100688.62;1630679;86;21143;-71
2022/06/01 09:33:33;;;;;;;5.30;3.60;;;;;;;27.50;43.64;100686.08;1621499;87;21042;-69
2022/06/01 09:36:12;;;;;;;7.07;4.30;;;;;;;27.46;43.54;100683.87;1597941;88;21149;-70
2022/06/01 09:38:54;;;;;;;6.90;4.90;;;;;;;27.45;43.31;100680.92;1636534;86;21523;-71
2022/06/01 09:41:26;;;;;;;6.00;4.13;;;;;;;27.50;43.22;100687.45;1642164;86;21478;-71
2022/06/01 09:44:03;;;;;;;6.13;4.10;;;;;;;27.57;43.66;100680.72;1628124;86;21104;-71
2022/06/01 09:46:40;;;;;;;5.40;4.03;;;;;;;27.72;43.93;100679.55;1628054;86;21128;-70
2022/06/01 09:49:21;;;;;;;6.60;4.20;;;;;;;27.93;43.96;100674.36;1628395;86;21100;-72
2022/06/01 09:51:51;;;;;;;;;;;;;;;28.20;43.60;100675.13;1632719;88;22322;-71
2022/06/01 09:54:26;;;;;;;5.60;3.77;;;;;;;28.33;42.36;100672.10;1615549;88;20191;-72
2022/06/01 09:56:53;;;;;;;6.43;3.80;;;;;;;28.47;42.66;100672.31;1627834;88;20994;-71
2022/06/01 10:08:14;;;;;;;5.37;3.53;;;;;;;28.53;41.19;100662.56;1600669;88;21134;-72
2022/06/01 10:10:45;;;;;;;5.45;3.98;;;;;;;28.54;40.78;100661.39;1627960;86;21092;-72
2022/06/01 10:13:12;;;;;;;5.97;4.17;;;;;;;28.59;40.26;100665.75;1632534;85;21543;-72
2022/06/01 10:15:46;;;;;;;5.50;3.50;;;;;;;28.46;40.25;100664.66;1639214;86;21532;-72
2022/06/01 10:18:17;;;;;;;6.23;3.50;;;;;;;28.42;41.13;100660.27;1638070;86;21461;-72
2022/06/01 10:20:52;;;;;;;5.92;3.80;;;;;;;28.58;40.90;100658.09;1657766;85;20982;-72
2022/06/01 10:23:35;;;;;;;3.90;2.80;;;;;;;28.83;41.52;100653.44;1654777;85;21540;-71
2022/06/01 10:26:11;;;;;;;4.13;3.30;;;;;;;29.09;41.18;100656.05;1636282;86;21545;-71
2022/06/01 10:28:48;;;;;;;5.63;3.87;;;;;;;29.18;40.02;100643.33;1639580;86;21027;-72
2022/06/01 10:31:38;;;;;;;7.37;3.97;;;;;;;29.08;39.70;100650.91;1630879;87;21134;-70
2022/06/01 10:34:16;;;;;;;6.23;4.07;;;;;;;28.81;39.84;100647.52;1627961;88;20982;-72
2022/06/01 10:37:19;;;;;;;5.37;3.43;;;;;;;28.54;40.40;100649.61;1631925;86;21018;-72
2022/06/01 10:40:08;;;;;;;6.53;3.83;;;;;;;28.40;40.77;100647.52;1630970;88;21457;-71
2022/06/01 10:45:37;;;;;;;6.30;3.50;;;;;;;28.52;40.08;100634.86;1629305;86;21274;-72
2022/06/01 10:48:14;;;;;;;6.53;3.50;;;;;;;28.60;39.57;100637.91;1629908;88;21046;-73
2022/06/01 10:51:09;;;;;;;7.43;3.30;;;;;;;28.59;39.55;100632.77;1628302;88;21516;-72
2022/06/01 10:53:50;;;;;;;4.33;3.30;;;;;;;28.64;39.95;100620.86;1630637;88;21119;-71
2022/06/01 10:56:20;;;;;;;5.15;3.30;;;;;;;28.79;39.40;100620.98;1631412;88;21615;-71
2022/06/01 10:58:48;;;;;;;6.23;3.60;;;;;;;28.86;39.34;100619.66;1611995;89;21782;-71
2022/06/01 11:01:32;;;;;;;4.60;3.03;;;;;;;28.90;39.68;100614.41;1630754;88;20977;-72
2022/06/01 11:04:29;;;;;;;6.00;3.50;;;;;;;28.93;38.97;100615.63;1627952;88;21037;-72
2022/06/01 11:07:26;;;;;;;5.47;3.33;;;;;;;28.89;38.79;100616.16;1605049;88;21141;-71
2022/06/01 11:10:24;;;;;;;8.30;3.53;;;;;;;28.81;38.74;100609.03;1605089;88;21003;-71
2022/06/01 11:13:03;;;;;;;5.03;3.27;;;;;;;28.84;39.41;100604.14;1643947;85;21545;-72
2022/06/01 11:15:48;;;;;;;4.40;2.97;;;;;;;29.00;39.07;100596.45;1657904;85;21057;-72
2022/06/01 11:18:35;;;;;;;4.70;3.37;;;;;;;28.92;38.26;100594.77;1639477;87;21644;-71
2022/06/01 11:21:28;;;;;;;5.80;3.30;;;;;;;28.81;38.65;100593.32;1655223;85;21017;-71
2022/06/01 11:24:19;;;;;;;5.57;3.40;;;;;;;28.79;38.89;100597.61;1622263;87;21162;-73
2022/06/01 11:27:14;;;;;;;5.27;2.97;;;;;;;28.61;38.65;100600.22;1627398;86;21060;-72
2022/06/01 11:30:01;;;;;;;6.10;3.40;;;;;;;28.41;39.14;100594.14;1628178;86;21102;-72
2022/06/01 11:33:04;;;;;;;6.17;3.57;;;;;;;28.39;39.38;100599.18;1628415;86;21148;-72
2022/06/01 11:35:45;;;;;;;5.67;3.40;;;;;;;28.55;40.14;100590.73;1626285;86;21059;-71
2022/06/01 11:38:32;;;;;;;5.03;3.40;;;;;;;28.75;39.47;100594.25;1627653;86;20990;-72
2022/06/01 11:41:14;;;;;;;6.50;3.13;;;;;;;28.82;38.35;100588.61;1631303;88;21564;-71
2022/06/01 11:43:48;;;;;;;3.90;2.67;;;;;;;28.77;38.84;100593.09;1629309;86;21100;-71
2022/06/01 11:46:26;;;;;;;5.40;2.80;;;;;;;28.88;37.86;100591.21;1630879;86;21001;-72
2022/06/01 11:48:56;;;;;;;4.60;2.97;;;;;;;28.95;37.74;100584.39;1630627;86;21187;-72
2022/06/01 11:51:47;;;;;;;5.03;3.07;;;;;;;29.09;37.82;100595.55;1630481;86;21547;-71
2022/06/01 11:54:35;;;;;;;4.10;2.80;;;;;;;29.26;37.32;100585.05;1627953;86;21169;-71
2022/06/01 11:57:09;;;;;;;5.60;3.30;;;;;;;29.37;36.99;100585.88;1621014;87;21049;-71
2022/06/01 11:59:47;;;;;;;6.50;3.50;;;;;;;29.30;36.85;100578.38;1614150;87;20990;-72
2022/06/01 12:02:40;;;;;;;6.07;3.00;;;;;;;29.27;37.29;100575.61;1628692;86;21028;-71
2022/06/01 12:05:12;;;;;;;4.27;2.97;;;;;;;29.34;37.02;100578.40;1599343;88;21066;-72
2022/06/01 12:07:53;;;;;;;5.77;3.13;;;;;;;29.41;36.67;100570.17;1628143;86;21112;-72
2022/06/01 12:10:43;;;;;;;;;;;;;;;29.53;36.90;100570.45;1629738;86;21101;-72
2022/06/01 12:13:31;;;;;;;4.15;2.87;;;;;;;29.57;35.93;100561.02;1631137;88;20170;-71
2022/06/01 12:16:21;;;;;;;4.70;2.80;;;;;;;29.55;36.04;100568.89;1612259;89;21068;-72
2022/06/01 12:19:13;;;;;;;3.83;2.80;;;;;;;29.52;36.20;100568.87;1631181;88;21563;-71
2022/06/01 12:21:53;;;;;;;5.20;2.63;;;;;;;29.53;35.84;100571.23;1628571;88;21975;-70
2022/06/01 12:30:14;;;;;;;5.53;3.30;;;;;;;29.96;35.69;100565.14;1612194;88;21038;-71
2022/06/01 12:32:59;;;;;;;4.07;2.87;;;;;;;30.07;35.61;100563.97;1616345;87;21479;-72